ホワイトホース の空港の天気 - METARとTAF

ホワイトホース国際空港 ( CYXY / YXY ) - カナダ ユーコン準州ホワイトホース
飛行場実況気象(Metar)
観測時間10/23 19:00 PDT (10/24 02:00 UTC)
風向・風速南東 5m/s
視程10km以上
天気現象周辺でしゅう雨
全天の8割程度の雲 雲底高度 1220m
全天を覆う雲 雲底高度 2440m
気温5℃
湿度70%
気圧993.5hPa
METARCYXY 240200Z 14009KT 25SM VCSH BKN040 OVC080 05/M00 A2925 RMK SC5AC3 SLP935 DENSITY ALT 2500FT
過去の天気等 Google飛行場航空写真 Wunderground天気予報

過去48時間のMETAR

飛行場予報(TAF)
発表時間: 10/23 16:39 PDT (10/23 23:39 UTC)
予報対象時間: 23日17時 PDT ~ 24日5時 PDT
風向・風速南南東 6m/s
視程10km以上
全天の4割程度の雲 雲底高度 1220m
全天の8割程度の雲 雲底高度 2440m
全天の8割程度の雲 雲底高度 4270m
23日17時 PDT ~ 23日21時 PDT に一時的に
全天の8割程度の雲 雲底高度 1220m
全天の8割程度の雲 雲底高度 2440m
23日21時 PDT から
風向・風速南 4m/s
視程10km以上
全天の4割程度の雲 雲底高度 1520m
全天の8割程度の雲 雲底高度 3050m
24日2時 PDT から
風向・風速南 3m/s
視程10km以上
少しの雲 雲底高度 150m
全天の4割程度の雲 雲底高度 3660m
TAF CYXY 232339Z 2400/2412 16012KT P6SM SCT040 BKN080 BKN140
TEMPO 2400/2404 BKN040 BKN080
FM240400 18008KT P6SM SCT050 BKN100
FM240900 18005KT P6SM FEW005 SCT120 RMK NXT FCST BY 240600Z